createdAt,value
2023-05-24T05:44:30.379Z,99915.25
2023-05-24T05:47:15.838Z,99915.25
2023-05-24T05:50:01.276Z,99918.09
2023-05-24T05:52:47.123Z,99926.19
2023-05-24T05:55:32.488Z,99926.38
2023-05-24T05:58:17.972Z,99924.37
2023-05-24T06:01:06.938Z,99929.75
2023-05-24T06:03:52.807Z,99927.16
2023-05-24T06:06:38.086Z,99935.94
2023-05-24T06:09:23.374Z,99932.72
2023-05-24T06:12:13.098Z,99931.78
2023-05-24T06:14:58.639Z,99927.91
2023-05-24T06:17:44.172Z,99928.94
2023-05-24T06:20:29.598Z,99933.63
2023-05-24T06:23:15.574Z,99934.81
2023-05-24T06:26:02.103Z,99939.41
2023-05-24T06:28:47.982Z,99947.84
2023-05-24T06:31:33.432Z,99943.66
2023-05-24T06:34:21.688Z,99952.69
2023-05-24T06:37:10.320Z,99953.84
2023-05-24T06:39:56.537Z,99959.94
2023-05-24T06:42:42.116Z,99962.66
2023-05-24T06:45:28.173Z,99958.69
2023-05-24T06:48:13.768Z,99959.50
2023-05-24T06:50:58.965Z,99973.88
2023-05-24T06:53:44.671Z,99976.84
2023-05-24T06:56:34.191Z,99976.72
2023-05-24T06:59:19.893Z,99974.28
2023-05-24T07:02:09.186Z,99983.56
2023-05-24T07:04:54.845Z,99973.28
2023-05-24T07:07:43.484Z,99967.84
2023-05-24T07:10:29.077Z,99983.34
2023-05-24T07:13:20.888Z,99978.37
2023-05-24T07:16:06.974Z,99975.69
2023-05-24T07:18:55.481Z,99970.66
2023-05-24T07:21:40.917Z,99977.19
2023-05-24T07:24:26.620Z,99975.41
2023-05-24T07:27:12.115Z,99974.59
2023-05-24T07:30:31.230Z,99971.50
2023-05-24T07:33:17.721Z,99978.13
2023-05-24T07:36:03.321Z,99986.63
2023-05-24T07:38:48.862Z,99981.09
2023-05-24T07:41:35.229Z,99974.69
2023-05-24T07:44:20.667Z,99973.09
2023-05-24T07:47:06.154Z,99982.31
2023-05-24T07:49:52.295Z,99985.50
2023-05-24T07:52:38.902Z,99983.97
2023-05-24T07:55:24.681Z,99984.06
2023-05-24T07:58:11.724Z,99981.91
2023-05-24T08:00:57.381Z,99990.44
2023-05-24T08:03:42.913Z,99986.16
2023-05-24T08:06:28.955Z,99983.31
2023-05-24T08:09:14.551Z,99999.22
2023-05-24T08:11:59.772Z,99990.78
2023-05-24T08:14:45.286Z,99991.69
2023-05-24T08:17:31.787Z,100000.37
2023-05-24T08:20:18.361Z,99995.44
2023-05-24T08:23:03.583Z,99991.22
2023-05-24T08:25:50.294Z,99984.06
2023-05-24T08:28:36.005Z,99991.72
2023-05-24T08:31:22.268Z,99990.12
2023-05-24T08:34:08.640Z,99997.31
2023-05-24T08:36:55.230Z,100007.78
2023-05-24T08:39:41.039Z,100009.19
2023-05-24T08:42:28.887Z,99997.75
2023-05-24T08:45:16.278Z,100016.44
2023-05-24T08:48:03.044Z,100018.84
2023-05-24T08:50:48.758Z,100007.75
2023-05-24T08:53:36.976Z,100015.78
2023-05-24T08:56:23.455Z,100015.75
2023-05-24T08:59:09.532Z,100022.44
2023-05-24T09:01:55.568Z,100029.12
2023-05-24T09:04:41.785Z,100025.12
2023-05-24T09:07:27.725Z,100036.44
2023-05-24T09:10:13.618Z,100037.56
2023-05-24T09:13:02.118Z,100044.66
2023-05-24T09:15:48.080Z,100042.78
2023-05-24T09:18:33.932Z,100037.63
2023-05-24T09:21:20.278Z,100045.59
2023-05-24T09:24:08.967Z,100042.91
2023-05-24T09:26:54.783Z,100032.00
2023-05-24T09:29:41.920Z,100033.28
2023-05-24T09:32:28.965Z,100034.81
2023-05-24T09:35:14.489Z,100030.34
2023-05-24T09:38:00.707Z,100018.69
2023-05-24T09:40:46.938Z,100032.31
2023-05-24T09:43:34.672Z,100035.50
2023-05-24T09:46:20.214Z,100031.41
2023-05-24T09:49:26.081Z,100053.00
2023-05-24T09:52:14.328Z,100062.50
2023-05-24T09:55:00.197Z,100049.38
2023-05-24T09:58:01.657Z,100049.22
2023-05-24T10:00:48.013Z,100051.06
2023-05-24T10:03:34.562Z,100056.91
2023-05-24T10:06:20.727Z,100060.84
2023-05-24T10:09:07.055Z,100064.22
2023-05-24T10:11:52.804Z,100065.22
2023-05-24T10:14:39.455Z,100070.38
2023-05-24T10:17:28.331Z,100058.28
2023-05-24T10:20:16.255Z,100064.84
2023-05-24T10:23:05.098Z,100062.50
2023-05-24T10:26:17.732Z,100068.78
2023-05-24T10:29:08.282Z,100053.00
2023-05-24T10:31:54.033Z,100078.31
2023-05-24T10:34:39.870Z,100066.09
2023-05-24T10:37:26.980Z,100070.13
2023-05-24T10:40:20.975Z,100072.19
2023-05-24T10:43:07.187Z,100062.72
2023-05-24T10:45:53.404Z,100070.25
2023-05-24T10:48:39.809Z,100071.19
2023-05-24T10:51:36.778Z,100070.69
2023-05-24T10:54:27.437Z,100066.88
2023-05-24T10:57:13.145Z,100062.50
2023-05-24T11:00:00.099Z,100062.69
2023-05-24T11:02:49.794Z,100060.16
2023-05-24T11:05:52.964Z,100065.13
2023-05-24T11:08:43.816Z,100070.06
2023-05-24T11:11:31.894Z,100061.59
2023-05-24T11:14:25.071Z,100066.78
2023-05-24T11:17:11.330Z,100057.59
2023-05-24T11:19:57.109Z,100058.81
2023-05-24T11:22:43.705Z,100048.19
2023-05-24T11:25:29.986Z,100045.28
2023-05-24T11:28:17.876Z,100038.31
2023-05-24T11:31:09.371Z,100022.72
2023-05-24T11:33:57.256Z,100020.63
2023-05-24T11:36:47.266Z,100042.34
2023-05-24T11:39:39.419Z,100036.81
2023-05-24T11:42:24.940Z,100035.69
2023-05-24T11:45:10.940Z,100037.31
2023-05-24T11:47:56.711Z,100023.50
2023-05-24T11:53:32.462Z,100013.81
2023-05-24T11:56:17.578Z,100009.94
2023-05-24T11:59:20.321Z,100006.31
2023-05-24T12:02:06.901Z,100002.63
2023-05-24T12:04:54.462Z,100003.13
